sensor_id;sensor_type;location;lat;lon;timestamp;temperature;humidity
43089;DHT22;28709;52.030;5.652;2023-08-24T00:00:39;18.30;99.90
43089;DHT22;28709;52.030;5.652;2023-08-24T00:03:05;18.20;99.90
43089;DHT22;28709;52.030;5.652;2023-08-24T00:05:34;18.30;99.90
43089;DHT22;28709;52.030;5.652;2023-08-24T00:08:06;18.30;99.90
43089;DHT22;28709;52.030;5.652;2023-08-24T00:10:31;18.20;99.90
43089;DHT22;28709;52.030;5.652;2023-08-24T00:12:58;18.20;99.90
43089;DHT22;28709;52.030;5.652;2023-08-24T00:15:23;18.20;99.90
43089;DHT22;28709;52.030;5.652;2023-08-24T00:17:49;18.20;99.90
43089;DHT22;28709;52.030;5.652;2023-08-24T00:20:15;18.30;99.90
43089;DHT22;28709;52.030;5.652;2023-08-24T00:22:41;18.20;99.90
43089;DHT22;28709;52.030;5.652;2023-08-24T00:25:07;18.20;99.90
43089;DHT22;28709;52.030;5.652;2023-08-24T00:27:34;18.20;99.90
43089;DHT22;28709;52.030;5.652;2023-08-24T00:30:02;18.20;99.90
43089;DHT22;28709;52.030;5.652;2023-08-24T00:32:28;18.20;99.90
43089;DHT22;28709;52.030;5.652;2023-08-24T00:34:55;18.10;99.90
43089;DHT22;28709;52.030;5.652;2023-08-24T00:37:21;18.10;99.90
43089;DHT22;28709;52.030;5.652;2023-08-24T00:39:46;18.10;99.90
43089;DHT22;28709;52.030;5.652;2023-08-24T00:42:12;18.10;99.90
43089;DHT22;28709;52.030;5.652;2023-08-24T00:44:40;18.10;99.90
43089;DHT22;28709;52.030;5.652;2023-08-24T00:47:07;18.10;99.90
43089;DHT22;28709;52.030;5.652;2023-08-24T00:49:34;18.10;99.90
43089;DHT22;28709;52.030;5.652;2023-08-24T00:52:00;18.20;99.90
43089;DHT22;28709;52.030;5.652;2023-08-24T00:54:26;18.20;99.90
43089;DHT22;28709;52.030;5.652;2023-08-24T00:56:52;18.20;99.90
43089;DHT22;28709;52.030;5.652;2023-08-24T00:59:19;18.20;99.90
43089;DHT22;28709;52.030;5.652;2023-08-24T01:01:45;18.20;99.90
43089;DHT22;28709;52.030;5.652;2023-08-24T01:04:13;18.30;99.90
43089;DHT22;28709;52.030;5.652;2023-08-24T01:06:38;18.20;99.90
43089;DHT22;28709;52.030;5.652;2023-08-24T01:09:05;18.30;99.90
43089;DHT22;28709;52.030;5.652;2023-08-24T01:11:45;18.30;99.90
43089;DHT22;28709;52.030;5.652;2023-08-24T01:16:58;18.30;99.90
43089;DHT22;28709;52.030;5.652;2023-08-24T01:19:45;18.20;99.90
43089;DHT22;28709;52.030;5.652;2023-08-24T01:22:31;18.20;99.90
43089;DHT22;28709;52.030;5.652;2023-08-24T01:25:04;18.20;99.90
43089;DHT22;28709;52.030;5.652;2023-08-24T01:27:33;18.10;99.90
43089;DHT22;28709;52.030;5.652;2023-08-24T01:30:01;18.00;99.90
43089;DHT22;28709;52.030;5.652;2023-08-24T01:32:30;18.00;99.90
43089;DHT22;28709;52.030;5.652;2023-08-24T01:34:56;17.90;99.90
43089;DHT22;28709;52.030;5.652;2023-08-24T01:37:22;17.90;99.90
43089;DHT22;28709;52.030;5.652;2023-08-24T01:40:07;17.80;99.90
43089;DHT22;28709;52.030;5.652;2023-08-24T01:45:14;17.80;99.90
43089;DHT22;28709;52.030;5.652;2023-08-24T01:47:43;17.90;99.90
43089;DHT22;28709;52.030;5.652;2023-08-24T01:50:09;17.80;99.90
43089;DHT22;28709;52.030;5.652;2023-08-24T01:52:36;17.90;99.90
43089;DHT22;28709;52.030;5.652;2023-08-24T01:55:01;17.90;99.90
43089;DHT22;28709;52.030;5.652;2023-08-24T01:57:27;18.00;99.90
43089;DHT22;28709;52.030;5.652;2023-08-24T01:59:53;18.00;99.90
43089;DHT22;28709;52.030;5.652;2023-08-24T02:02:20;18.10;99.90
43089;DHT22;28709;52.030;5.652;2023-08-24T02:04:46;18.10;99.90
43089;DHT22;28709;52.030;5.652;2023-08-24T02:07:11;18.10;99.90
43089;DHT22;28709;52.030;5.652;2023-08-24T02:09:37;18.20;99.90
43089;DHT22;28709;52.030;5.652;2023-08-24T02:12:03;18.20;99.90
43089;DHT22;28709;52.030;5.652;2023-08-24T02:14:28;18.20;99.90
43089;DHT22;28709;52.030;5.652;2023-08-24T02:16:54;18.20;99.90
43089;DHT22;28709;52.030;5.652;2023-08-24T02:19:20;18.20;99.90
43089;DHT22;28709;52.030;5.652;2023-08-24T02:21:45;18.20;99.90
43089;DHT22;28709;52.030;5.652;2023-08-24T02:24:11;18.10;99.90
43089;DHT22;28709;52.030;5.652;2023-08-24T02:26:36;18.10;99.90
43089;DHT22;28709;52.030;5.652;2023-08-24T02:29:02;18.10;99.90
43089;DHT22;28709;52.030;5.652;2023-08-24T02:31:28;18.00;99.90
43089;DHT22;28709;52.030;5.652;2023-08-24T02:33:54;17.90;99.90
43089;DHT22;28709;52.030;5.652;2023-08-24T02:36:19;18.00;99.90
43089;DHT22;28709;52.030;5.652;2023-08-24T02:38:45;18.00;99.90
43089;DHT22;28709;52.030;5.652;2023-08-24T02:41:11;18.00;99.90
43089;DHT22;28709;52.030;5.652;2023-08-24T02:43:39;18.00;99.90
43089;DHT22;28709;52.030;5.652;2023-08-24T02:46:07;18.00;99.90
43089;DHT22;28709;52.030;5.652;2023-08-24T02:48:33;18.00;99.90
43089;DHT22;28709;52.030;5.652;2023-08-24T02:51:00;18.00;99.90
43089;DHT22;28709;52.030;5.652;2023-08-24T02:53:26;18.00;99.90
43089;DHT22;28709;52.030;5.652;2023-08-24T02:55:53;18.00;99.90
43089;DHT22;28709;52.030;5.652;2023-08-24T02:58:19;18.00;99.90
43089;DHT22;28709;52.030;5.652;2023-08-24T03:00:45;17.90;99.90
43089;DHT22;28709;52.030;5.652;2023-08-24T03:03:13;17.80;99.90
43089;DHT22;28709;52.030;5.652;2023-08-24T03:05:39;17.70;99.90
43089;DHT22;28709;52.030;5.652;2023-08-24T03:08:05;17.70;99.90
43089;DHT22;28709;52.030;5.652;2023-08-24T03:10:34;17.70;99.90
43089;DHT22;28709;52.030;5.652;2023-08-24T03:13:00;17.70;99.90
43089;DHT22;28709;52.030;5.652;2023-08-24T03:15:26;17.70;99.90
43089;DHT22;28709;52.030;5.652;2023-08-24T03:17:51;17.70;99.90
43089;DHT22;28709;52.030;5.652;2023-08-24T03:20:18;17.70;99.90
43089;DHT22;28709;52.030;5.652;2023-08-24T03:22:44;17.70;99.90
43089;DHT22;28709;52.030;5.652;2023-08-24T03:25:10;17.70;99.90
43089;DHT22;28709;52.030;5.652;2023-08-24T03:27:35;17.60;99.90
43089;DHT22;28709;52.030;5.652;2023-08-24T03:30:01;17.60;99.90
43089;DHT22;28709;52.030;5.652;2023-08-24T03:32:29;17.60;99.90
43089;DHT22;28709;52.030;5.652;2023-08-24T03:34:59;17.60;99.90
43089;DHT22;28709;52.030;5.652;2023-08-24T03:37:24;17.60;99.90
43089;DHT22;28709;52.030;5.652;2023-08-24T03:39:50;17.60;99.90
43089;DHT22;28709;52.030;5.652;2023-08-24T03:42:16;17.60;99.90
43089;DHT22;28709;52.030;5.652;2023-08-24T03:44:42;17.60;99.90
43089;DHT22;28709;52.030;5.652;2023-08-24T03:47:07;17.60;99.90
43089;DHT22;28709;52.030;5.652;2023-08-24T03:49:34;17.60;99.90
43089;DHT22;28709;52.030;5.652;2023-08-24T03:52:00;17.60;99.90
43089;DHT22;28709;52.030;5.652;2023-08-24T03:54:25;17.60;99.90
43089;DHT22;28709;52.030;5.652;2023-08-24T03:56:51;17.60;99.90
43089;DHT22;28709;52.030;5.652;2023-08-24T03:59:17;17.50;99.90
43089;DHT22;28709;52.030;5.652;2023-08-24T04:01:42;17.60;99.90
43089;DHT22;28709;52.030;5.652;2023-08-24T04:04:08;17.50;99.90
43089;DHT22;28709;52.030;5.652;2023-08-24T04:06:34;17.50;99.90
43089;DHT22;28709;52.030;5.652;2023-08-24T04:08:59;17.60;99.90
43089;DHT22;28709;52.030;5.652;2023-08-24T04:11:25;17.50;99.90
43089;DHT22;28709;52.030;5.652;2023-08-24T04:13:50;17.50;99.90
43089;DHT22;28709;52.030;5.652;2023-08-24T04:16:16;17.40;99.90
43089;DHT22;28709;52.030;5.652;2023-08-24T04:18:42;17.40;99.90
43089;DHT22;28709;52.030;5.652;2023-08-24T04:21:07;17.40;99.90
43089;DHT22;28709;52.030;5.652;2023-08-24T04:23:33;17.40;99.90
43089;DHT22;28709;52.030;5.652;2023-08-24T04:25:59;17.40;99.90
43089;DHT22;28709;52.030;5.652;2023-08-24T04:28:24;17.30;99.90
43089;DHT22;28709;52.030;5.652;2023-08-24T04:30:54;17.40;99.90
43089;DHT22;28709;52.030;5.652;2023-08-24T04:33:21;17.30;99.90
43089;DHT22;28709;52.030;5.652;2023-08-24T04:35:48;17.30;99.90
43089;DHT22;28709;52.030;5.652;2023-08-24T04:38:15;17.30;99.90
43089;DHT22;28709;52.030;5.652;2023-08-24T04:40:54;17.30;99.90
43089;DHT22;28709;52.030;5.652;2023-08-24T04:43:21;17.30;99.90
43089;DHT22;28709;52.030;5.652;2023-08-24T04:45:49;17.30;99.90
43089;DHT22;28709;52.030;5.652;2023-08-24T04:48:18;17.30;99.90
43089;DHT22;28709;52.030;5.652;2023-08-24T04:50:44;17.20;99.90
43089;DHT22;28709;52.030;5.652;2023-08-24T04:53:13;17.20;99.90
43089;DHT22;28709;52.030;5.652;2023-08-24T04:55:40;17.20;99.90
43089;DHT22;28709;52.030;5.652;2023-08-24T04:58:07;17.20;99.90
43089;DHT22;28709;52.030;5.652;2023-08-24T05:00:33;17.20;99.90
43089;DHT22;28709;52.030;5.652;2023-08-24T05:03:01;17.20;99.90
43089;DHT22;28709;52.030;5.652;2023-08-24T05:05:28;17.20;99.90
43089;DHT22;28709;52.030;5.652;2023-08-24T05:07:54;17.20;99.90
43089;DHT22;28709;52.030;5.652;2023-08-24T05:10:20;17.20;99.90
43089;DHT22;28709;52.030;5.652;2023-08-24T05:12:46;17.20;99.90
43089;DHT22;28709;52.030;5.652;2023-08-24T05:15:11;17.30;99.90
43089;DHT22;28709;52.030;5.652;2023-08-24T05:17:39;17.30;99.90
43089;DHT22;28709;52.030;5.652;2023-08-24T05:20:05;17.30;99.90
43089;DHT22;28709;52.030;5.652;2023-08-24T05:22:31;17.30;99.90
43089;DHT22;28709;52.030;5.652;2023-08-24T05:24:57;17.30;99.90
43089;DHT22;28709;52.030;5.652;2023-08-24T05:27:22;17.40;99.90
43089;DHT22;28709;52.030;5.652;2023-08-24T05:29:48;17.40;99.90
43089;DHT22;28709;52.030;5.652;2023-08-24T05:32:13;17.50;99.90
43089;DHT22;28709;52.030;5.652;2023-08-24T05:34:39;17.50;99.90
43089;DHT22;28709;52.030;5.652;2023-08-24T05:37:05;17.50;99.90
43089;DHT22;28709;52.030;5.652;2023-08-24T05:39:30;17.60;99.90
43089;DHT22;28709;52.030;5.652;2023-08-24T05:41:56;17.60;99.90
43089;DHT22;28709;52.030;5.652;2023-08-24T05:44:21;17.70;99.90
43089;DHT22;28709;52.030;5.652;2023-08-24T05:46:47;17.70;99.90
43089;DHT22;28709;52.030;5.652;2023-08-24T05:49:13;17.70;99.90
43089;DHT22;28709;52.030;5.652;2023-08-24T05:51:39;17.70;99.90
43089;DHT22;28709;52.030;5.652;2023-08-24T05:54:05;17.80;99.90
43089;DHT22;28709;52.030;5.652;2023-08-24T05:56:31;17.80;99.90
43089;DHT22;28709;52.030;5.652;2023-08-24T05:58:58;17.90;99.90
43089;DHT22;28709;52.030;5.652;2023-08-24T06:01:24;17.90;99.90
43089;DHT22;28709;52.030;5.652;2023-08-24T06:03:50;17.90;99.90
43089;DHT22;28709;52.030;5.652;2023-08-24T06:06:16;18.00;99.90
43089;DHT22;28709;52.030;5.652;2023-08-24T06:08:43;18.00;99.90
43089;DHT22;28709;52.030;5.652;2023-08-24T06:11:09;18.10;99.90
43089;DHT22;28709;52.030;5.652;2023-08-24T06:13:35;18.20;99.90
43089;DHT22;28709;52.030;5.652;2023-08-24T06:16:01;18.20;99.90
43089;DHT22;28709;52.030;5.652;2023-08-24T06:18:27;18.30;99.90
43089;DHT22;28709;52.030;5.652;2023-08-24T06:20:53;18.40;99.90
43089;DHT22;28709;52.030;5.652;2023-08-24T06:23:19;18.40;99.90
43089;DHT22;28709;52.030;5.652;2023-08-24T06:25:46;18.50;99.90
43089;DHT22;28709;52.030;5.652;2023-08-24T06:28:11;18.60;99.90
43089;DHT22;28709;52.030;5.652;2023-08-24T06:30:41;18.70;99.90
43089;DHT22;28709;52.030;5.652;2023-08-24T06:33:08;18.80;99.90
43089;DHT22;28709;52.030;5.652;2023-08-24T06:35:36;18.80;99.90
43089;DHT22;28709;52.030;5.652;2023-08-24T06:38:03;18.90;99.90
43089;DHT22;28709;52.030;5.652;2023-08-24T06:40:29;19.00;99.90
43089;DHT22;28709;52.030;5.652;2023-08-24T06:42:58;19.10;99.90
43089;DHT22;28709;52.030;5.652;2023-08-24T06:45:24;19.30;99.90
43089;DHT22;28709;52.030;5.652;2023-08-24T06:47:50;19.50;99.90
43089;DHT22;28709;52.030;5.652;2023-08-24T06:50:17;19.70;99.90
43089;DHT22;28709;52.030;5.652;2023-08-24T06:52:44;19.90;99.90
43089;DHT22;28709;52.030;5.652;2023-08-24T06:55:10;20.10;99.90
43089;DHT22;28709;52.030;5.652;2023-08-24T06:57:37;20.30;99.90
43089;DHT22;28709;52.030;5.652;2023-08-24T07:00:03;20.40;99.90
43089;DHT22;28709;52.030;5.652;2023-08-24T07:02:35;20.50;99.90
43089;DHT22;28709;52.030;5.652;2023-08-24T07:05:02;20.70;99.90
43089;DHT22;28709;52.030;5.652;2023-08-24T07:07:30;20.90;99.90
43089;DHT22;28709;52.030;5.652;2023-08-24T07:09:55;21.10;99.90
43089;DHT22;28709;52.030;5.652;2023-08-24T07:12:21;21.20;99.90
43089;DHT22;28709;52.030;5.652;2023-08-24T07:14:47;21.40;99.90
43089;DHT22;28709;52.030;5.652;2023-08-24T07:17:12;21.60;99.90
43089;DHT22;28709;52.030;5.652;2023-08-24T07:19:38;21.80;99.90
43089;DHT22;28709;52.030;5.652;2023-08-24T07:22:03;21.90;99.90
43089;DHT22;28709;52.030;5.652;2023-08-24T07:24:29;22.00;99.90
43089;DHT22;28709;52.030;5.652;2023-08-24T07:26:55;22.20;99.90
43089;DHT22;28709;52.030;5.652;2023-08-24T07:29:21;22.40;99.90
43089;DHT22;28709;52.030;5.652;2023-08-24T07:31:47;22.60;99.90
43089;DHT22;28709;52.030;5.652;2023-08-24T07:34:14;22.80;99.90
43089;DHT22;28709;52.030;5.652;2023-08-24T07:36:39;22.90;99.90
43089;DHT22;28709;52.030;5.652;2023-08-24T07:39:05;23.10;99.90
43089;DHT22;28709;52.030;5.652;2023-08-24T07:41:30;23.20;99.90
43089;DHT22;28709;52.030;5.652;2023-08-24T07:43:56;23.20;99.90
43089;DHT22;28709;52.030;5.652;2023-08-24T07:46:22;23.40;99.90
43089;DHT22;28709;52.030;5.652;2023-08-24T07:48:47;23.60;99.90
43089;DHT22;28709;52.030;5.652;2023-08-24T07:51:13;23.90;99.90
43089;DHT22;28709;52.030;5.652;2023-08-24T07:53:39;24.00;99.90
43089;DHT22;28709;52.030;5.652;2023-08-24T07:56:04;24.20;99.90
43089;DHT22;28709;52.030;5.652;2023-08-24T07:58:30;24.30;99.90
43089;DHT22;28709;52.030;5.652;2023-08-24T08:00:59;24.40;99.90
43089;DHT22;28709;52.030;5.652;2023-08-24T08:03:25;24.50;99.90
43089;DHT22;28709;52.030;5.652;2023-08-24T08:05:51;24.60;99.90
43089;DHT22;28709;52.030;5.652;2023-08-24T08:08:17;24.80;99.90
43089;DHT22;28709;52.030;5.652;2023-08-24T08:10:43;25.00;99.90
43089;DHT22;28709;52.030;5.652;2023-08-24T08:13:09;25.20;99.90
43089;DHT22;28709;52.030;5.652;2023-08-24T08:15:38;25.30;99.90
43089;DHT22;28709;52.030;5.652;2023-08-24T08:18:05;25.50;99.90
43089;DHT22;28709;52.030;5.652;2023-08-24T08:20:31;25.60;99.90
43089;DHT22;28709;52.030;5.652;2023-08-24T08:22:57;25.60;99.90
43089;DHT22;28709;52.030;5.652;2023-08-24T08:25:22;25.60;99.90
43089;DHT22;28709;52.030;5.652;2023-08-24T08:27:49;25.60;99.90
43089;DHT22;28709;52.030;5.652;2023-08-24T08:30:15;25.60;99.90
43089;DHT22;28709;52.030;5.652;2023-08-24T08:32:41;25.70;99.90
43089;DHT22;28709;52.030;5.652;2023-08-24T08:35:08;25.70;99.90
43089;DHT22;28709;52.030;5.652;2023-08-24T08:37:34;25.70;99.90
43089;DHT22;28709;52.030;5.652;2023-08-24T08:40:03;25.60;99.90
43089;DHT22;28709;52.030;5.652;2023-08-24T08:42:31;25.40;99.90
43089;DHT22;28709;52.030;5.652;2023-08-24T08:44:59;25.20;99.90
43089;DHT22;28709;52.030;5.652;2023-08-24T08:47:28;25.20;99.90
43089;DHT22;28709;52.030;5.652;2023-08-24T08:49:54;25.10;99.90
43089;DHT22;28709;52.030;5.652;2023-08-24T08:52:20;25.10;99.90
43089;DHT22;28709;52.030;5.652;2023-08-24T08:54:46;25.10;99.90
43089;DHT22;28709;52.030;5.652;2023-08-24T08:57:12;25.10;99.90
43089;DHT22;28709;52.030;5.652;2023-08-24T08:59:38;25.20;99.90
43089;DHT22;28709;52.030;5.652;2023-08-24T09:02:05;25.30;99.90
43089;DHT22;28709;52.030;5.652;2023-08-24T09:04:32;25.40;99.90
43089;DHT22;28709;52.030;5.652;2023-08-24T09:06:57;25.60;99.90
43089;DHT22;28709;52.030;5.652;2023-08-24T09:09:25;25.60;99.90
43089;DHT22;28709;52.030;5.652;2023-08-24T09:11:51;25.60;99.90
43089;DHT22;28709;52.030;5.652;2023-08-24T09:14:17;25.60;99.90
43089;DHT22;28709;52.030;5.652;2023-08-24T09:16:43;25.70;99.90
43089;DHT22;28709;52.030;5.652;2023-08-24T09:19:11;25.80;99.90
43089;DHT22;28709;52.030;5.652;2023-08-24T09:21:38;26.00;99.90
43089;DHT22;28709;52.030;5.652;2023-08-24T09:24:04;26.10;99.90
43089;DHT22;28709;52.030;5.652;2023-08-24T09:26:31;26.10;99.90
43089;DHT22;28709;52.030;5.652;2023-08-24T09:28:58;26.10;99.90
43089;DHT22;28709;52.030;5.652;2023-08-24T09:31:28;26.20;99.90
43089;DHT22;28709;52.030;5.652;2023-08-24T09:34:01;26.30;99.90
43089;DHT22;28709;52.030;5.652;2023-08-24T09:36:31;26.60;99.90
43089;DHT22;28709;52.030;5.652;2023-08-24T09:38:59;26.90;99.90
43089;DHT22;28709;52.030;5.652;2023-08-24T09:41:40;27.10;99.90
43089;DHT22;28709;52.030;5.652;2023-08-24T09:44:06;27.30;99.90
43089;DHT22;28709;52.030;5.652;2023-08-24T09:46:32;27.50;99.90
43089;DHT22;28709;52.030;5.652;2023-08-24T09:48:57;27.60;99.90
43089;DHT22;28709;52.030;5.652;2023-08-24T09:51:27;27.60;99.90
43089;DHT22;28709;52.030;5.652;2023-08-24T09:53:57;27.60;99.90
43089;DHT22;28709;52.030;5.652;2023-08-24T09:56:25;27.60;99.90
43089;DHT22;28709;52.030;5.652;2023-08-24T09:58:54;27.70;99.90
43089;DHT22;28709;52.030;5.652;2023-08-24T10:01:20;27.70;99.90
43089;DHT22;28709;52.030;5.652;2023-08-24T10:03:50;27.70;99.90
43089;DHT22;28709;52.030;5.652;2023-08-24T10:06:19;27.60;99.90
43089;DHT22;28709;52.030;5.652;2023-08-24T10:08:50;27.60;99.90
43089;DHT22;28709;52.030;5.652;2023-08-24T10:11:23;27.40;99.90
43089;DHT22;28709;52.030;5.652;2023-08-24T10:14:08;27.10;99.90
43089;DHT22;28709;52.030;5.652;2023-08-24T10:16:36;26.90;99.90
43089;DHT22;28709;52.030;5.652;2023-08-24T10:19:02;26.80;99.90
43089;DHT22;28709;52.030;5.652;2023-08-24T10:21:29;26.60;99.90
43089;DHT22;28709;52.030;5.652;2023-08-24T10:23:57;26.40;99.90
43089;DHT22;28709;52.030;5.652;2023-08-24T10:26:26;26.20;99.90
43089;DHT22;28709;52.030;5.652;2023-08-24T10:28:52;26.00;99.90
43089;DHT22;28709;52.030;5.652;2023-08-24T10:31:19;25.90;99.90
43089;DHT22;28709;52.030;5.652;2023-08-24T10:33:46;25.80;99.90
43089;DHT22;28709;52.030;5.652;2023-08-24T10:36:15;25.60;99.90
43089;DHT22;28709;52.030;5.652;2023-08-24T10:38:42;25.50;99.90
43089;DHT22;28709;52.030;5.652;2023-08-24T10:41:08;25.30;99.90
43089;DHT22;28709;52.030;5.652;2023-08-24T10:43:38;25.30;99.90
43089;DHT22;28709;52.030;5.652;2023-08-24T10:46:04;25.20;99.90
43089;DHT22;28709;52.030;5.652;2023-08-24T10:53:45;24.90;99.90
43089;DHT22;28709;52.030;5.652;2023-08-24T10:56:12;24.90;99.90
43089;DHT22;28709;52.030;5.652;2023-08-24T10:58:38;24.80;99.90
43089;DHT22;28709;52.030;5.652;2023-08-24T11:01:04;24.80;99.90
43089;DHT22;28709;52.030;5.652;2023-08-24T11:03:33;24.80;99.90
43089;DHT22;28709;52.030;5.652;2023-08-24T11:05:59;24.70;99.90
43089;DHT22;28709;52.030;5.652;2023-08-24T11:08:44;24.70;99.90
43089;DHT22;28709;52.030;5.652;2023-08-24T11:11:20;24.60;99.90
43089;DHT22;28709;52.030;5.652;2023-08-24T11:16:46;24.60;99.90
43089;DHT22;28709;52.030;5.652;2023-08-24T11:19:12;24.60;99.90
43089;DHT22;28709;52.030;5.652;2023-08-24T11:21:39;24.60;99.90
43089;DHT22;28709;52.030;5.652;2023-08-24T11:24:06;24.60;99.90
43089;DHT22;28709;52.030;5.652;2023-08-24T11:26:32;24.70;99.90
43089;DHT22;28709;52.030;5.652;2023-08-24T11:28:58;24.60;99.90
43089;DHT22;28709;52.030;5.652;2023-08-24T11:31:24;24.70;99.90
43089;DHT22;28709;52.030;5.652;2023-08-24T11:33:54;24.80;99.90
43089;DHT22;28709;52.030;5.652;2023-08-24T11:36:23;24.80;99.90
43089;DHT22;28709;52.030;5.652;2023-08-24T11:38:52;24.80;99.90
43089;DHT22;28709;52.030;5.652;2023-08-24T11:41:19;24.80;99.90
43089;DHT22;28709;52.030;5.652;2023-08-24T11:43:47;24.90;99.90
43089;DHT22;28709;52.030;5.652;2023-08-24T11:46:19;25.00;99.90
43089;DHT22;28709;52.030;5.652;2023-08-24T11:48:45;25.00;99.90
43089;DHT22;28709;52.030;5.652;2023-08-24T11:51:12;24.90;99.90
43089;DHT22;28709;52.030;5.652;2023-08-24T11:53:45;24.90;99.90
43089;DHT22;28709;52.030;5.652;2023-08-24T11:56:11;24.90;99.90
43089;DHT22;28709;52.030;5.652;2023-08-24T11:58:41;24.90;99.90
43089;DHT22;28709;52.030;5.652;2023-08-24T12:01:11;24.90;99.90
43089;DHT22;28709;52.030;5.652;2023-08-24T12:03:38;24.90;99.90
43089;DHT22;28709;52.030;5.652;2023-08-24T12:06:15;24.80;99.90
43089;DHT22;28709;52.030;5.652;2023-08-24T12:08:45;24.80;99.90
43089;DHT22;28709;52.030;5.652;2023-08-24T12:11:13;24.80;99.90
43089;DHT22;28709;52.030;5.652;2023-08-24T12:13:52;24.80;99.90
43089;DHT22;28709;52.030;5.652;2023-08-24T12:16:19;24.90;99.90
43089;DHT22;28709;52.030;5.652;2023-08-24T12:18:53;24.90;99.90
43089;DHT22;28709;52.030;5.652;2023-08-24T12:21:23;25.00;99.90
43089;DHT22;28709;52.030;5.652;2023-08-24T12:23:56;25.10;99.90
43089;DHT22;28709;52.030;5.652;2023-08-24T12:26:22;25.10;99.90
43089;DHT22;28709;52.030;5.652;2023-08-24T12:28:51;25.20;99.90
43089;DHT22;28709;52.030;5.652;2023-08-24T12:31:20;25.40;99.90
43089;DHT22;28709;52.030;5.652;2023-08-24T12:33:49;25.50;99.90
43089;DHT22;28709;52.030;5.652;2023-08-24T12:36:22;25.50;99.90
43089;DHT22;28709;52.030;5.652;2023-08-24T12:38:48;25.60;99.90
43089;DHT22;28709;52.030;5.652;2023-08-24T12:41:13;25.70;99.90
43089;DHT22;28709;52.030;5.652;2023-08-24T12:43:39;25.70;99.90
43089;DHT22;28709;52.030;5.652;2023-08-24T12:46:04;25.80;99.90
43089;DHT22;28709;52.030;5.652;2023-08-24T12:48:30;25.80;99.90
43089;DHT22;28709;52.030;5.652;2023-08-24T12:50:56;25.90;99.90
43089;DHT22;28709;52.030;5.652;2023-08-24T12:53:21;25.90;99.90
43089;DHT22;28709;52.030;5.652;2023-08-24T12:55:47;25.90;99.90
43089;DHT22;28709;52.030;5.652;2023-08-24T12:58:13;25.90;99.90
43089;DHT22;28709;52.030;5.652;2023-08-24T13:00:38;25.90;99.90
43089;DHT22;28709;52.030;5.652;2023-08-24T13:03:04;25.90;99.90
43089;DHT22;28709;52.030;5.652;2023-08-24T13:05:29;25.90;99.90
43089;DHT22;28709;52.030;5.652;2023-08-24T13:07:55;25.90;99.90
43089;DHT22;28709;52.030;5.652;2023-08-24T13:10:21;26.00;99.90
43089;DHT22;28709;52.030;5.652;2023-08-24T13:12:47;26.00;99.90
43089;DHT22;28709;52.030;5.652;2023-08-24T13:15:13;26.00;99.90
43089;DHT22;28709;52.030;5.652;2023-08-24T13:17:38;26.00;99.90
43089;DHT22;28709;52.030;5.652;2023-08-24T13:20:05;26.10;99.90
43089;DHT22;28709;52.030;5.652;2023-08-24T13:22:31;26.20;99.90
43089;DHT22;28709;52.030;5.652;2023-08-24T13:24:57;26.30;99.90
43089;DHT22;28709;52.030;5.652;2023-08-24T13:27:23;26.20;99.90
43089;DHT22;28709;52.030;5.652;2023-08-24T13:29:48;26.20;99.90
43089;DHT22;28709;52.030;5.652;2023-08-24T13:32:14;26.10;99.90
43089;DHT22;28709;52.030;5.652;2023-08-24T13:34:39;26.20;99.90
43089;DHT22;28709;52.030;5.652;2023-08-24T13:37:05;26.20;99.90
43089;DHT22;28709;52.030;5.652;2023-08-24T13:39:31;26.20;99.90
43089;DHT22;28709;52.030;5.652;2023-08-24T13:41:59;26.20;99.90
43089;DHT22;28709;52.030;5.652;2023-08-24T13:44:25;26.20;99.90
43089;DHT22;28709;52.030;5.652;2023-08-24T13:46:51;26.20;99.90
43089;DHT22;28709;52.030;5.652;2023-08-24T13:49:20;26.10;99.90
43089;DHT22;28709;52.030;5.652;2023-08-24T13:51:46;26.20;99.90
43089;DHT22;28709;52.030;5.652;2023-08-24T13:54:16;26.20;99.90
43089;DHT22;28709;52.030;5.652;2023-08-24T13:56:46;26.30;99.90
43089;DHT22;28709;52.030;5.652;2023-08-24T13:59:13;26.20;99.90
43089;DHT22;28709;52.030;5.652;2023-08-24T14:01:40;26.10;99.90
43089;DHT22;28709;52.030;5.652;2023-08-24T14:04:06;26.10;99.90
43089;DHT22;28709;52.030;5.652;2023-08-24T14:06:33;26.00;99.90
43089;DHT22;28709;52.030;5.652;2023-08-24T14:09:00;25.90;99.90
43089;DHT22;28709;52.030;5.652;2023-08-24T14:11:27;25.90;99.90
43089;DHT22;28709;52.030;5.652;2023-08-24T14:13:53;25.90;99.90
43089;DHT22;28709;52.030;5.652;2023-08-24T14:16:19;25.80;99.90
43089;DHT22;28709;52.030;5.652;2023-08-24T14:18:48;25.80;99.90
43089;DHT22;28709;52.030;5.652;2023-08-24T14:21:14;25.80;99.90
43089;DHT22;28709;52.030;5.652;2023-08-24T14:23:40;25.70;99.90
43089;DHT22;28709;52.030;5.652;2023-08-24T14:26:06;25.60;99.90
43089;DHT22;28709;52.030;5.652;2023-08-24T14:28:52;25.60;99.90
43089;DHT22;28709;52.030;5.652;2023-08-24T14:31:27;25.50;99.90
43089;DHT22;28709;52.030;5.652;2023-08-24T14:33:54;25.40;99.90
43089;DHT22;28709;52.030;5.652;2023-08-24T14:36:20;25.30;99.90
43089;DHT22;28709;52.030;5.652;2023-08-24T14:38:47;25.30;99.90
43089;DHT22;28709;52.030;5.652;2023-08-24T14:41:14;25.30;99.90
43089;DHT22;28709;52.030;5.652;2023-08-24T14:43:40;25.30;99.90
43089;DHT22;28709;52.030;5.652;2023-08-24T14:46:06;25.30;99.90
43089;DHT22;28709;52.030;5.652;2023-08-24T14:48:32;25.20;99.90
43089;DHT22;28709;52.030;5.652;2023-08-24T14:50:58;25.20;99.90
43089;DHT22;28709;52.030;5.652;2023-08-24T14:53:25;25.20;99.90
43089;DHT22;28709;52.030;5.652;2023-08-24T14:55:52;25.20;99.90
43089;DHT22;28709;52.030;5.652;2023-08-24T14:58:20;25.20;99.90
43089;DHT22;28709;52.030;5.652;2023-08-24T15:00:45;25.20;99.90
43089;DHT22;28709;52.030;5.652;2023-08-24T15:03:12;25.20;99.90
43089;DHT22;28709;52.030;5.652;2023-08-24T15:05:44;25.20;99.90
43089;DHT22;28709;52.030;5.652;2023-08-24T15:08:10;25.10;99.90
43089;DHT22;28709;52.030;5.652;2023-08-24T15:10:37;25.10;99.90
43089;DHT22;28709;52.030;5.652;2023-08-24T15:13:03;25.10;99.90
43089;DHT22;28709;52.030;5.652;2023-08-24T15:15:29;25.10;99.90
43089;DHT22;28709;52.030;5.652;2023-08-24T15:17:55;25.00;99.90
43089;DHT22;28709;52.030;5.652;2023-08-24T15:20:21;25.00;99.90
43089;DHT22;28709;52.030;5.652;2023-08-24T15:22:46;25.00;99.90
43089;DHT22;28709;52.030;5.652;2023-08-24T15:25:12;24.90;99.90
43089;DHT22;28709;52.030;5.652;2023-08-24T15:27:37;24.90;99.90
43089;DHT22;28709;52.030;5.652;2023-08-24T15:30:04;24.90;99.90
43089;DHT22;28709;52.030;5.652;2023-08-24T15:32:33;24.90;99.90
43089;DHT22;28709;52.030;5.652;2023-08-24T15:34:59;24.90;99.90
43089;DHT22;28709;52.030;5.652;2023-08-24T15:37:24;24.90;99.90
43089;DHT22;28709;52.030;5.652;2023-08-24T15:39:50;24.90;99.90
43089;DHT22;28709;52.030;5.652;2023-08-24T15:42:16;25.00;99.90